sensor_id;sensor_type;location;lat;lon;timestamp;temperature;humidity
48744;DHT22;34538;48.836;9.174;2023-04-25T00:00:15;9.30;99.90
48744;DHT22;34538;48.836;9.174;2023-04-25T00:02:42;9.30;99.90
48744;DHT22;34538;48.836;9.174;2023-04-25T00:05:09;9.30;99.90
48744;DHT22;34538;48.836;9.174;2023-04-25T00:07:38;9.30;99.90
48744;DHT22;34538;48.836;9.174;2023-04-25T00:10:06;9.30;99.90
48744;DHT22;34538;48.836;9.174;2023-04-25T00:12:33;9.20;99.90
48744;DHT22;34538;48.836;9.174;2023-04-25T00:15:01;9.20;99.90
48744;DHT22;34538;48.836;9.174;2023-04-25T00:17:28;9.20;99.90
48744;DHT22;34538;48.836;9.174;2023-04-25T00:19:55;9.20;99.90
48744;DHT22;34538;48.836;9.174;2023-04-25T00:22:23;9.20;99.90
48744;DHT22;34538;48.836;9.174;2023-04-25T00:24:52;9.20;99.90
48744;DHT22;34538;48.836;9.174;2023-04-25T00:27:22;9.20;99.90
48744;DHT22;34538;48.836;9.174;2023-04-25T00:29:48;9.20;99.90
48744;DHT22;34538;48.836;9.174;2023-04-25T00:32:15;9.20;99.90
48744;DHT22;34538;48.836;9.174;2023-04-25T00:34:42;9.20;99.90
48744;DHT22;34538;48.836;9.174;2023-04-25T00:37:09;9.10;99.90
48744;DHT22;34538;48.836;9.174;2023-04-25T00:39:36;9.10;99.90
48744;DHT22;34538;48.836;9.174;2023-04-25T00:42:04;9.10;99.90
48744;DHT22;34538;48.836;9.174;2023-04-25T00:44:31;9.10;99.90
48744;DHT22;34538;48.836;9.174;2023-04-25T00:46:59;9.10;99.90
48744;DHT22;34538;48.836;9.174;2023-04-25T00:49:26;9.10;99.90
48744;DHT22;34538;48.836;9.174;2023-04-25T00:51:54;9.10;99.90
48744;DHT22;34538;48.836;9.174;2023-04-25T00:54:21;9.10;99.90
48744;DHT22;34538;48.836;9.174;2023-04-25T00:56:48;9.10;99.90
48744;DHT22;34538;48.836;9.174;2023-04-25T00:59:17;9.00;99.90
48744;DHT22;34538;48.836;9.174;2023-04-25T01:01:45;9.00;99.90
48744;DHT22;34538;48.836;9.174;2023-04-25T01:04:13;9.00;99.90
48744;DHT22;34538;48.836;9.174;2023-04-25T01:06:40;9.00;99.90
48744;DHT22;34538;48.836;9.174;2023-04-25T01:09:07;9.00;99.90
48744;DHT22;34538;48.836;9.174;2023-04-25T01:11:35;9.00;99.90
48744;DHT22;34538;48.836;9.174;2023-04-25T01:14:01;9.00;99.90
48744;DHT22;34538;48.836;9.174;2023-04-25T01:16:30;9.00;99.90
48744;DHT22;34538;48.836;9.174;2023-04-25T01:18:58;9.00;99.90
48744;DHT22;34538;48.836;9.174;2023-04-25T01:21:27;9.00;99.90
48744;DHT22;34538;48.836;9.174;2023-04-25T01:23:55;9.00;99.90
48744;DHT22;34538;48.836;9.174;2023-04-25T01:26:23;9.00;99.90
48744;DHT22;34538;48.836;9.174;2023-04-25T01:28:50;9.00;99.90
48744;DHT22;34538;48.836;9.174;2023-04-25T01:31:18;9.00;99.90
48744;DHT22;34538;48.836;9.174;2023-04-25T01:33:46;9.00;99.90
48744;DHT22;34538;48.836;9.174;2023-04-25T01:36:13;9.00;99.90
48744;DHT22;34538;48.836;9.174;2023-04-25T01:38:42;8.90;99.90
48744;DHT22;34538;48.836;9.174;2023-04-25T01:41:09;8.90;99.90
48744;DHT22;34538;48.836;9.174;2023-04-25T01:43:36;8.90;99.90
48744;DHT22;34538;48.836;9.174;2023-04-25T01:46:04;8.90;99.90
48744;DHT22;34538;48.836;9.174;2023-04-25T01:48:31;8.80;99.90
48744;DHT22;34538;48.836;9.174;2023-04-25T01:50:57;8.80;99.90
48744;DHT22;34538;48.836;9.174;2023-04-25T01:53:24;8.80;99.90
48744;DHT22;34538;48.836;9.174;2023-04-25T01:55:53;8.80;99.90
48744;DHT22;34538;48.836;9.174;2023-04-25T01:58:22;8.80;99.90
48744;DHT22;34538;48.836;9.174;2023-04-25T02:01:05;8.80;99.90
48744;DHT22;34538;48.836;9.174;2023-04-25T02:03:39;8.90;99.90
48744;DHT22;34538;48.836;9.174;2023-04-25T02:06:10;8.90;99.90
48744;DHT22;34538;48.836;9.174;2023-04-25T02:08:42;8.90;99.90
48744;DHT22;34538;48.836;9.174;2023-04-25T02:11:12;8.90;99.90
48744;DHT22;34538;48.836;9.174;2023-04-25T02:13:59;8.90;99.90
48744;DHT22;34538;48.836;9.174;2023-04-25T02:16:40;9.00;99.90
48744;DHT22;34538;48.836;9.174;2023-04-25T02:19:09;9.00;99.90
48744;DHT22;34538;48.836;9.174;2023-04-25T02:21:36;9.00;99.90
48744;DHT22;34538;48.836;9.174;2023-04-25T02:24:04;9.00;99.90
48744;DHT22;34538;48.836;9.174;2023-04-25T02:26:34;9.00;99.90
48744;DHT22;34538;48.836;9.174;2023-04-25T02:29:02;9.00;99.90
48744;DHT22;34538;48.836;9.174;2023-04-25T02:31:29;9.00;99.90
48744;DHT22;34538;48.836;9.174;2023-04-25T02:33:57;9.00;99.90
48744;DHT22;34538;48.836;9.174;2023-04-25T02:36:24;8.90;99.90
48744;DHT22;34538;48.836;9.174;2023-04-25T02:38:51;8.90;99.90
48744;DHT22;34538;48.836;9.174;2023-04-25T02:41:20;8.80;99.90
48744;DHT22;34538;48.836;9.174;2023-04-25T02:43:48;8.80;99.90
48744;DHT22;34538;48.836;9.174;2023-04-25T02:46:18;8.80;99.90
48744;DHT22;34538;48.836;9.174;2023-04-25T02:48:46;8.80;99.90
48744;DHT22;34538;48.836;9.174;2023-04-25T02:51:13;8.80;99.90
48744;DHT22;34538;48.836;9.174;2023-04-25T02:53:42;8.80;99.90
48744;DHT22;34538;48.836;9.174;2023-04-25T02:56:09;8.80;99.90
48744;DHT22;34538;48.836;9.174;2023-04-25T02:58:35;8.80;99.90
48744;DHT22;34538;48.836;9.174;2023-04-25T03:01:04;8.80;99.90
48744;DHT22;34538;48.836;9.174;2023-04-25T03:03:31;8.80;99.90
48744;DHT22;34538;48.836;9.174;2023-04-25T03:05:57;8.80;99.90
48744;DHT22;34538;48.836;9.174;2023-04-25T03:08:30;8.80;99.90
48744;DHT22;34538;48.836;9.174;2023-04-25T03:10:59;8.80;99.90
48744;DHT22;34538;48.836;9.174;2023-04-25T03:13:26;8.80;99.90
48744;DHT22;34538;48.836;9.174;2023-04-25T03:15:55;8.80;99.90
48744;DHT22;34538;48.836;9.174;2023-04-25T03:18:24;8.80;99.90
48744;DHT22;34538;48.836;9.174;2023-04-25T03:20:51;8.80;99.90
48744;DHT22;34538;48.836;9.174;2023-04-25T03:23:17;8.70;99.90
48744;DHT22;34538;48.836;9.174;2023-04-25T03:25:45;8.70;99.90
48744;DHT22;34538;48.836;9.174;2023-04-25T03:28:11;8.70;99.90
48744;DHT22;34538;48.836;9.174;2023-04-25T03:30:38;8.70;99.90
48744;DHT22;34538;48.836;9.174;2023-04-25T03:33:05;8.70;99.90
48744;DHT22;34538;48.836;9.174;2023-04-25T03:35:34;8.70;99.90
48744;DHT22;34538;48.836;9.174;2023-04-25T03:38:00;8.60;99.90
48744;DHT22;34538;48.836;9.174;2023-04-25T03:40:32;8.50;99.90
48744;DHT22;34538;48.836;9.174;2023-04-25T03:43:26;8.50;99.90
48744;DHT22;34538;48.836;9.174;2023-04-25T03:46:02;8.50;99.90
48744;DHT22;34538;48.836;9.174;2023-04-25T03:48:29;8.50;99.90
48744;DHT22;34538;48.836;9.174;2023-04-25T03:50:57;8.50;99.90
48744;DHT22;34538;48.836;9.174;2023-04-25T03:53:24;8.60;99.90
48744;DHT22;34538;48.836;9.174;2023-04-25T03:56:09;8.60;99.90
48744;DHT22;34538;48.836;9.174;2023-04-25T03:58:38;8.60;99.90
48744;DHT22;34538;48.836;9.174;2023-04-25T04:01:06;8.60;99.90
48744;DHT22;34538;48.836;9.174;2023-04-25T04:03:35;8.60;99.90
48744;DHT22;34538;48.836;9.174;2023-04-25T04:06:04;8.60;99.90
48744;DHT22;34538;48.836;9.174;2023-04-25T04:08:35;8.60;99.90
48744;DHT22;34538;48.836;9.174;2023-04-25T04:11:02;8.60;99.90
48744;DHT22;34538;48.836;9.174;2023-04-25T04:13:29;8.60;99.90
48744;DHT22;34538;48.836;9.174;2023-04-25T04:15:56;8.60;99.90
48744;DHT22;34538;48.836;9.174;2023-04-25T04:18:24;8.50;99.90
48744;DHT22;34538;48.836;9.174;2023-04-25T04:20:51;8.50;99.90
48744;DHT22;34538;48.836;9.174;2023-04-25T04:23:19;8.50;99.90
48744;DHT22;34538;48.836;9.174;2023-04-25T04:25:47;8.50;99.90
48744;DHT22;34538;48.836;9.174;2023-04-25T04:28:26;8.50;99.90
48744;DHT22;34538;48.836;9.174;2023-04-25T04:30:57;8.50;99.90
48744;DHT22;34538;48.836;9.174;2023-04-25T04:33:24;8.50;99.90
48744;DHT22;34538;48.836;9.174;2023-04-25T04:35:56;8.50;99.90
48744;DHT22;34538;48.836;9.174;2023-04-25T04:38:25;8.50;99.90
48744;DHT22;34538;48.836;9.174;2023-04-25T04:40:55;8.50;99.90
48744;DHT22;34538;48.836;9.174;2023-04-25T04:43:46;8.50;99.90
48744;DHT22;34538;48.836;9.174;2023-04-25T04:46:51;8.50;99.90
48744;DHT22;34538;48.836;9.174;2023-04-25T04:49:30;8.50;99.90
48744;DHT22;34538;48.836;9.174;2023-04-25T04:52:20;8.60;99.90
48744;DHT22;34538;48.836;9.174;2023-04-25T04:55:26;8.60;99.90
48744;DHT22;34538;48.836;9.174;2023-04-25T04:58:04;8.60;99.90
48744;DHT22;34538;48.836;9.174;2023-04-25T05:00:46;8.70;99.90
48744;DHT22;34538;48.836;9.174;2023-04-25T05:03:51;8.70;99.90
48744;DHT22;34538;48.836;9.174;2023-04-25T05:06:34;8.70;99.90
48744;DHT22;34538;48.836;9.174;2023-04-25T05:09:17;8.80;99.90
48744;DHT22;34538;48.836;9.174;2023-04-25T05:12:09;8.80;99.90
48744;DHT22;34538;48.836;9.174;2023-04-25T05:15:14;8.80;99.90
48744;DHT22;34538;48.836;9.174;2023-04-25T05:18:17;8.80;99.90
48744;DHT22;34538;48.836;9.174;2023-04-25T05:20:59;8.90;99.90
48744;DHT22;34538;48.836;9.174;2023-04-25T05:23:44;9.00;99.90
48744;DHT22;34538;48.836;9.174;2023-04-25T05:26:31;9.00;99.90
48744;DHT22;34538;48.836;9.174;2023-04-25T05:29:26;9.00;99.90
48744;DHT22;34538;48.836;9.174;2023-04-25T05:32:01;9.00;99.90
48744;DHT22;34538;48.836;9.174;2023-04-25T05:34:30;9.00;99.90
48744;DHT22;34538;48.836;9.174;2023-04-25T05:37:00;8.90;99.90
48744;DHT22;34538;48.836;9.174;2023-04-25T05:39:28;8.80;99.90
48744;DHT22;34538;48.836;9.174;2023-04-25T05:42:17;8.80;99.90
48744;DHT22;34538;48.836;9.174;2023-04-25T05:45:01;8.60;99.90
48744;DHT22;34538;48.836;9.174;2023-04-25T05:48:07;8.50;99.90
48744;DHT22;34538;48.836;9.174;2023-04-25T05:50:58;8.40;99.90
48744;DHT22;34538;48.836;9.174;2023-04-25T05:53:51;8.30;99.90
48744;DHT22;34538;48.836;9.174;2023-04-25T05:56:18;8.20;99.90
48744;DHT22;34538;48.836;9.174;2023-04-25T05:58:49;8.20;99.90
48744;DHT22;34538;48.836;9.174;2023-04-25T06:01:17;8.20;99.90
48744;DHT22;34538;48.836;9.174;2023-04-25T06:03:44;8.20;99.90
48744;DHT22;34538;48.836;9.174;2023-04-25T06:06:12;8.20;99.90
48744;DHT22;34538;48.836;9.174;2023-04-25T06:08:39;8.10;99.90
48744;DHT22;34538;48.836;9.174;2023-04-25T06:11:06;8.20;99.90
48744;DHT22;34538;48.836;9.174;2023-04-25T06:13:33;8.20;99.90
48744;DHT22;34538;48.836;9.174;2023-04-25T06:16:00;8.20;99.90
48744;DHT22;34538;48.836;9.174;2023-04-25T06:18:29;8.30;99.90
48744;DHT22;34538;48.836;9.174;2023-04-25T06:20:56;8.30;99.90
48744;DHT22;34538;48.836;9.174;2023-04-25T06:23:23;8.40;99.90
48744;DHT22;34538;48.836;9.174;2023-04-25T06:25:55;8.50;99.90
48744;DHT22;34538;48.836;9.174;2023-04-25T06:28:22;8.60;99.90
48744;DHT22;34538;48.836;9.174;2023-04-25T06:30:50;8.70;99.90
48744;DHT22;34538;48.836;9.174;2023-04-25T06:33:18;8.80;99.90
48744;DHT22;34538;48.836;9.174;2023-04-25T06:35:47;8.90;99.90
48744;DHT22;34538;48.836;9.174;2023-04-25T06:38:17;9.00;99.90
48744;DHT22;34538;48.836;9.174;2023-04-25T06:40:48;9.20;99.90
48744;DHT22;34538;48.836;9.174;2023-04-25T06:43:15;9.30;99.90
48744;DHT22;34538;48.836;9.174;2023-04-25T06:46:11;9.40;99.90
48744;DHT22;34538;48.836;9.174;2023-04-25T06:48:43;9.50;99.90
48744;DHT22;34538;48.836;9.174;2023-04-25T06:51:12;9.50;99.90
48744;DHT22;34538;48.836;9.174;2023-04-25T06:53:39;9.60;99.90
48744;DHT22;34538;48.836;9.174;2023-04-25T06:56:10;9.70;99.90
48744;DHT22;34538;48.836;9.174;2023-04-25T06:58:49;9.70;99.90
48744;DHT22;34538;48.836;9.174;2023-04-25T07:01:23;9.70;99.90
48744;DHT22;34538;48.836;9.174;2023-04-25T07:03:50;9.70;99.90
48744;DHT22;34538;48.836;9.174;2023-04-25T07:06:19;9.70;99.90
48744;DHT22;34538;48.836;9.174;2023-04-25T07:08:47;9.70;99.90
48744;DHT22;34538;48.836;9.174;2023-04-25T07:11:14;9.70;99.90
48744;DHT22;34538;48.836;9.174;2023-04-25T07:13:41;9.70;99.90
48744;DHT22;34538;48.836;9.174;2023-04-25T07:16:07;9.70;99.90
48744;DHT22;34538;48.836;9.174;2023-04-25T07:18:35;9.70;99.90
48744;DHT22;34538;48.836;9.174;2023-04-25T07:21:03;9.70;99.90
48744;DHT22;34538;48.836;9.174;2023-04-25T07:23:33;9.70;99.90
48744;DHT22;34538;48.836;9.174;2023-04-25T07:26:07;9.70;99.90
48744;DHT22;34538;48.836;9.174;2023-04-25T07:28:34;9.70;99.90
48744;DHT22;34538;48.836;9.174;2023-04-25T07:31:01;9.70;99.90
48744;DHT22;34538;48.836;9.174;2023-04-25T07:33:29;9.70;99.90
48744;DHT22;34538;48.836;9.174;2023-04-25T07:35:56;9.60;99.90
48744;DHT22;34538;48.836;9.174;2023-04-25T07:38:23;9.60;99.90
48744;DHT22;34538;48.836;9.174;2023-04-25T07:40:51;9.60;99.90
48744;DHT22;34538;48.836;9.174;2023-04-25T07:43:18;9.60;99.90
48744;DHT22;34538;48.836;9.174;2023-04-25T07:45:53;9.60;99.90
48744;DHT22;34538;48.836;9.174;2023-04-25T07:48:20;9.60;99.90
48744;DHT22;34538;48.836;9.174;2023-04-25T07:50:50;9.50;99.90
48744;DHT22;34538;48.836;9.174;2023-04-25T07:53:17;9.50;99.90
48744;DHT22;34538;48.836;9.174;2023-04-25T07:55:52;9.50;99.90
48744;DHT22;34538;48.836;9.174;2023-04-25T07:58:20;9.50;99.90
48744;DHT22;34538;48.836;9.174;2023-04-25T08:00:50;9.40;99.90
48744;DHT22;34538;48.836;9.174;2023-04-25T08:03:52;9.40;99.90
48744;DHT22;34538;48.836;9.174;2023-04-25T08:06:31;9.40;99.90
48744;DHT22;34538;48.836;9.174;2023-04-25T08:09:07;9.30;99.90
48744;DHT22;34538;48.836;9.174;2023-04-25T08:11:39;9.30;99.90
48744;DHT22;34538;48.836;9.174;2023-04-25T08:14:08;9.30;99.90
48744;DHT22;34538;48.836;9.174;2023-04-25T08:16:36;9.30;99.90
48744;DHT22;34538;48.836;9.174;2023-04-25T08:19:04;9.30;99.90
48744;DHT22;34538;48.836;9.174;2023-04-25T08:21:34;9.30;99.90
48744;DHT22;34538;48.836;9.174;2023-04-25T08:24:05;9.40;99.90
48744;DHT22;34538;48.836;9.174;2023-04-25T08:26:35;9.30;99.90
48744;DHT22;34538;48.836;9.174;2023-04-25T08:29:06;9.30;99.90
48744;DHT22;34538;48.836;9.174;2023-04-25T08:31:37;9.20;99.90
48744;DHT22;34538;48.836;9.174;2023-04-25T08:34:05;9.20;99.90
48744;DHT22;34538;48.836;9.174;2023-04-25T08:36:50;9.20;99.90
48744;DHT22;34538;48.836;9.174;2023-04-25T08:39:27;9.10;99.90
48744;DHT22;34538;48.836;9.174;2023-04-25T08:42:14;9.10;99.90
48744;DHT22;34538;48.836;9.174;2023-04-25T08:44:44;9.00;99.90
48744;DHT22;34538;48.836;9.174;2023-04-25T08:47:12;8.90;99.90
48744;DHT22;34538;48.836;9.174;2023-04-25T08:49:49;8.80;99.90
48744;DHT22;34538;48.836;9.174;2023-04-25T08:52:21;8.80;99.90
48744;DHT22;34538;48.836;9.174;2023-04-25T08:54:49;8.70;99.90
48744;DHT22;34538;48.836;9.174;2023-04-25T08:57:17;8.70;99.90
48744;DHT22;34538;48.836;9.174;2023-04-25T08:59:47;8.60;99.90
48744;DHT22;34538;48.836;9.174;2023-04-25T09:02:17;8.60;99.90
48744;DHT22;34538;48.836;9.174;2023-04-25T09:04:48;8.60;99.90
48744;DHT22;34538;48.836;9.174;2023-04-25T09:07:16;8.60;99.90
48744;DHT22;34538;48.836;9.174;2023-04-25T09:09:46;8.50;99.90
48744;DHT22;34538;48.836;9.174;2023-04-25T09:12:18;8.50;99.90
48744;DHT22;34538;48.836;9.174;2023-04-25T09:15:02;8.50;99.90
48744;DHT22;34538;48.836;9.174;2023-04-25T09:17:43;8.50;99.90
48744;DHT22;34538;48.836;9.174;2023-04-25T09:20:13;8.40;99.90
48744;DHT22;34538;48.836;9.174;2023-04-25T09:22:40;8.30;99.90
48744;DHT22;34538;48.836;9.174;2023-04-25T09:25:09;8.30;99.90
48744;DHT22;34538;48.836;9.174;2023-04-25T09:27:49;8.20;99.90
48744;DHT22;34538;48.836;9.174;2023-04-25T09:30:30;8.00;99.90
48744;DHT22;34538;48.836;9.174;2023-04-25T09:33:10;7.90;99.90
48744;DHT22;34538;48.836;9.174;2023-04-25T09:35:43;7.80;99.90
48744;DHT22;34538;48.836;9.174;2023-04-25T09:38:18;7.80;99.90
48744;DHT22;34538;48.836;9.174;2023-04-25T09:41:07;7.70;99.90
48744;DHT22;34538;48.836;9.174;2023-04-25T09:43:39;7.70;99.90
48744;DHT22;34538;48.836;9.174;2023-04-25T09:46:10;7.60;99.90
48744;DHT22;34538;48.836;9.174;2023-04-25T09:48:48;7.60;99.90
48744;DHT22;34538;48.836;9.174;2023-04-25T09:51:17;7.60;99.90
48744;DHT22;34538;48.836;9.174;2023-04-25T09:53:46;7.60;99.90
48744;DHT22;34538;48.836;9.174;2023-04-25T09:56:25;7.70;99.90
48744;DHT22;34538;48.836;9.174;2023-04-25T09:58:57;7.70;99.90
48744;DHT22;34538;48.836;9.174;2023-04-25T10:01:26;7.70;99.90
48744;DHT22;34538;48.836;9.174;2023-04-25T10:04:10;7.80;99.90
48744;DHT22;34538;48.836;9.174;2023-04-25T10:06:53;7.80;99.90
48744;DHT22;34538;48.836;9.174;2023-04-25T10:09:21;7.80;99.90
48744;DHT22;34538;48.836;9.174;2023-04-25T10:11:50;7.70;99.90
48744;DHT22;34538;48.836;9.174;2023-04-25T10:14:18;7.70;99.90
48744;DHT22;34538;48.836;9.174;2023-04-25T10:16:48;7.60;99.90
48744;DHT22;34538;48.836;9.174;2023-04-25T10:19:31;7.50;99.90
48744;DHT22;34538;48.836;9.174;2023-04-25T10:22:04;7.50;99.90
48744;DHT22;34538;48.836;9.174;2023-04-25T10:24:32;7.40;99.90
48744;DHT22;34538;48.836;9.174;2023-04-25T10:27:00;7.40;99.90
48744;DHT22;34538;48.836;9.174;2023-04-25T10:29:27;7.40;99.90
48744;DHT22;34538;48.836;9.174;2023-04-25T10:31:57;7.40;99.90
48744;DHT22;34538;48.836;9.174;2023-04-25T10:34:25;7.40;99.90
48744;DHT22;34538;48.836;9.174;2023-04-25T10:37:03;7.40;99.90
48744;DHT22;34538;48.836;9.174;2023-04-25T10:39:30;7.40;99.90
48744;DHT22;34538;48.836;9.174;2023-04-25T10:41:59;7.30;99.90
48744;DHT22;34538;48.836;9.174;2023-04-25T10:44:29;7.20;99.90
48744;DHT22;34538;48.836;9.174;2023-04-25T10:46:58;7.20;99.90
48744;DHT22;34538;48.836;9.174;2023-04-25T10:49:32;7.10;99.90
48744;DHT22;34538;48.836;9.174;2023-04-25T10:52:27;7.00;99.90
48744;DHT22;34538;48.836;9.174;2023-04-25T10:54:56;6.90;99.90
48744;DHT22;34538;48.836;9.174;2023-04-25T10:57:30;6.90;99.90
48744;DHT22;34538;48.836;9.174;2023-04-25T11:00:22;6.90;99.90
48744;DHT22;34538;48.836;9.174;2023-04-25T11:02:57;7.00;99.90
48744;DHT22;34538;48.836;9.174;2023-04-25T11:05:31;7.00;99.90
48744;DHT22;34538;48.836;9.174;2023-04-25T11:07:58;7.10;99.90
48744;DHT22;34538;48.836;9.174;2023-04-25T11:10:26;7.20;99.90
48744;DHT22;34538;48.836;9.174;2023-04-25T11:12:54;7.30;99.90
48744;DHT22;34538;48.836;9.174;2023-04-25T11:15:20;7.40;99.90
48744;DHT22;34538;48.836;9.174;2023-04-25T11:17:47;7.50;99.90
48744;DHT22;34538;48.836;9.174;2023-04-25T11:20:16;7.50;99.90
48744;DHT22;34538;48.836;9.174;2023-04-25T11:22:44;7.60;99.90
48744;DHT22;34538;48.836;9.174;2023-04-25T11:25:12;7.70;99.90
48744;DHT22;34538;48.836;9.174;2023-04-25T11:27:49;7.80;99.90
48744;DHT22;34538;48.836;9.174;2023-04-25T11:30:17;7.90;99.90
48744;DHT22;34538;48.836;9.174;2023-04-25T11:32:44;7.90;99.90
48744;DHT22;34538;48.836;9.174;2023-04-25T11:35:11;7.90;99.90
48744;DHT22;34538;48.836;9.174;2023-04-25T11:37:40;7.90;99.90
48744;DHT22;34538;48.836;9.174;2023-04-25T11:40:08;7.90;99.90
48744;DHT22;34538;48.836;9.174;2023-04-25T11:42:36;7.90;99.90
48744;DHT22;34538;48.836;9.174;2023-04-25T11:45:05;7.90;99.90
48744;DHT22;34538;48.836;9.174;2023-04-25T11:47:32;7.90;99.90
48744;DHT22;34538;48.836;9.174;2023-04-25T11:50:00;7.80;99.90
48744;DHT22;34538;48.836;9.174;2023-04-25T11:52:36;7.80;99.90
48744;DHT22;34538;48.836;9.174;2023-04-25T11:55:06;7.90;99.90
48744;DHT22;34538;48.836;9.174;2023-04-25T11:57:33;8.00;99.90
48744;DHT22;34538;48.836;9.174;2023-04-25T12:00:09;8.10;99.90
48744;DHT22;34538;48.836;9.174;2023-04-25T12:02:41;8.10;99.90
48744;DHT22;34538;48.836;9.174;2023-04-25T12:05:08;8.10;99.90
48744;DHT22;34538;48.836;9.174;2023-04-25T12:07:36;8.10;99.90
48744;DHT22;34538;48.836;9.174;2023-04-25T12:10:09;8.00;99.90
48744;DHT22;34538;48.836;9.174;2023-04-25T12:12:37;8.00;99.90
48744;DHT22;34538;48.836;9.174;2023-04-25T12:15:12;7.90;99.90
48744;DHT22;34538;48.836;9.174;2023-04-25T12:17:41;7.90;99.90
48744;DHT22;34538;48.836;9.174;2023-04-25T12:20:10;7.90;99.90
48744;DHT22;34538;48.836;9.174;2023-04-25T12:22:37;7.90;99.90
48744;DHT22;34538;48.836;9.174;2023-04-25T12:25:05;7.90;99.90
48744;DHT22;34538;48.836;9.174;2023-04-25T12:27:35;7.90;99.90
48744;DHT22;34538;48.836;9.174;2023-04-25T12:30:04;7.90;99.90
48744;DHT22;34538;48.836;9.174;2023-04-25T12:32:32;8.00;99.90
48744;DHT22;34538;48.836;9.174;2023-04-25T12:34:59;8.00;99.90
48744;DHT22;34538;48.836;9.174;2023-04-25T12:37:28;8.20;99.90
48744;DHT22;34538;48.836;9.174;2023-04-25T12:39:55;8.30;99.90
48744;DHT22;34538;48.836;9.174;2023-04-25T12:42:22;8.40;99.90
48744;DHT22;34538;48.836;9.174;2023-04-25T12:44:50;8.60;99.90
48744;DHT22;34538;48.836;9.174;2023-04-25T12:47:17;8.80;99.90
48744;DHT22;34538;48.836;9.174;2023-04-25T12:49:44;9.00;99.90
48744;DHT22;34538;48.836;9.174;2023-04-25T12:52:11;9.20;99.90
48744;DHT22;34538;48.836;9.174;2023-04-25T12:54:38;9.30;99.90
48744;DHT22;34538;48.836;9.174;2023-04-25T12:57:05;9.50;99.90
48744;DHT22;34538;48.836;9.174;2023-04-25T12:59:32;9.60;99.90
48744;DHT22;34538;48.836;9.174;2023-04-25T13:02:00;9.70;99.90
48744;DHT22;34538;48.836;9.174;2023-04-25T13:04:27;9.80;99.90
48744;DHT22;34538;48.836;9.174;2023-04-25T13:06:54;9.80;99.90
48744;DHT22;34538;48.836;9.174;2023-04-25T13:09:21;9.80;99.90
48744;DHT22;34538;48.836;9.174;2023-04-25T13:11:47;9.80;99.90
48744;DHT22;34538;48.836;9.174;2023-04-25T13:14:14;9.90;99.90
48744;DHT22;34538;48.836;9.174;2023-04-25T13:16:41;9.90;99.90
48744;DHT22;34538;48.836;9.174;2023-04-25T13:19:09;10.00;99.90
48744;DHT22;34538;48.836;9.174;2023-04-25T13:21:38;10.00;99.90
48744;DHT22;34538;48.836;9.174;2023-04-25T13:24:05;10.10;99.90
48744;DHT22;34538;48.836;9.174;2023-04-25T13:26:32;10.10;99.90
48744;DHT22;34538;48.836;9.174;2023-04-25T13:28:59;10.10;99.90
48744;DHT22;34538;48.836;9.174;2023-04-25T13:31:28;10.10;99.90
48744;DHT22;34538;48.836;9.174;2023-04-25T13:33:55;10.10;99.90
48744;DHT22;34538;48.836;9.174;2023-04-25T13:36:24;10.10;99.90
48744;DHT22;34538;48.836;9.174;2023-04-25T13:38:51;10.10;99.90
48744;DHT22;34538;48.836;9.174;2023-04-25T13:41:18;10.00;99.90
48744;DHT22;34538;48.836;9.174;2023-04-25T13:43:45;10.10;99.90
48744;DHT22;34538;48.836;9.174;2023-04-25T13:46:14;10.20;99.90
48744;DHT22;34538;48.836;9.174;2023-04-25T13:48:41;10.30;99.90
48744;DHT22;34538;48.836;9.174;2023-04-25T13:51:13;10.40;99.90
48744;DHT22;34538;48.836;9.174;2023-04-25T13:53:43;10.50;99.90
48744;DHT22;34538;48.836;9.174;2023-04-25T13:56:10;10.60;99.90
48744;DHT22;34538;48.836;9.174;2023-04-25T13:58:38;10.70;99.90
48744;DHT22;34538;48.836;9.174;2023-04-25T14:01:04;10.70;99.90
48744;DHT22;34538;48.836;9.174;2023-04-25T14:03:31;10.70;99.90
48744;DHT22;34538;48.836;9.174;2023-04-25T14:05:58;10.70;99.90
48744;DHT22;34538;48.836;9.174;2023-04-25T14:08:26;10.70;99.90
48744;DHT22;34538;48.836;9.174;2023-04-25T14:10:55;10.80;99.90
48744;DHT22;34538;48.836;9.174;2023-04-25T14:13:22;10.80;99.90
48744;DHT22;34538;48.836;9.174;2023-04-25T14:15:50;10.80;99.90
48744;DHT22;34538;48.836;9.174;2023-04-25T14:18:18;11.00;99.90
48744;DHT22;34538;48.836;9.174;2023-04-25T14:20:45;11.10;99.90
48744;DHT22;34538;48.836;9.174;2023-04-25T14:23:12;11.20;99.90
48744;DHT22;34538;48.836;9.174;2023-04-25T14:25:39;11.20;99.90
48744;DHT22;34538;48.836;9.174;2023-04-25T14:28:10;11.30;99.90
48744;DHT22;34538;48.836;9.174;2023-04-25T14:30:37;11.40;99.90
48744;DHT22;34538;48.836;9.174;2023-04-25T14:33:03;11.40;99.90
48744;DHT22;34538;48.836;9.174;2023-04-25T14:35:30;11.40;99.90
48744;DHT22;34538;48.836;9.174;2023-04-25T14:37:57;11.30;99.90
48744;DHT22;34538;48.836;9.174;2023-04-25T14:40:25;11.30;99.90
48744;DHT22;34538;48.836;9.174;2023-04-25T14:42:52;11.30;99.90
48744;DHT22;34538;48.836;9.174;2023-04-25T14:45:20;11.20;99.90
48744;DHT22;34538;48.836;9.174;2023-04-25T14:47:47;11.20;99.90
48744;DHT22;34538;48.836;9.174;2023-04-25T14:50:14;11.30;99.90
48744;DHT22;34538;48.836;9.174;2023-04-25T14:52:40;11.30;99.90
48744;DHT22;34538;48.836;9.174;2023-04-25T14:55:08;11.30;99.90
48744;DHT22;34538;48.836;9.174;2023-04-25T14:57:35;11.30;99.90
48744;DHT22;34538;48.836;9.174;2023-04-25T15:00:03;11.40;99.90
48744;DHT22;34538;48.836;9.174;2023-04-25T15:02:36;11.50;99.90
48744;DHT22;34538;48.836;9.174;2023-04-25T15:05:03;11.50;99.90
48744;DHT22;34538;48.836;9.174;2023-04-25T15:07:30;11.50;99.90
48744;DHT22;34538;48.836;9.174;2023-04-25T15:09:57;11.60;99.90
48744;DHT22;34538;48.836;9.174;2023-04-25T15:12:24;11.70;99.90
48744;DHT22;34538;48.836;9.174;2023-04-25T15:14:51;11.70;99.90
48744;DHT22;34538;48.836;9.174;2023-04-25T15:17:18;11.60;99.90
48744;DHT22;34538;48.836;9.174;2023-04-25T15:19:47;11.50;99.90
48744;DHT22;34538;48.836;9.174;2023-04-25T15:22:14;11.50;99.90
48744;DHT22;34538;48.836;9.174;2023-04-25T15:24:40;11.60;99.90
48744;DHT22;34538;48.836;9.174;2023-04-25T15:27:07;11.60;99.90
48744;DHT22;34538;48.836;9.174;2023-04-25T15:29:34;11.60;99.90
48744;DHT22;34538;48.836;9.174;2023-04-25T15:32:01;11.60;99.90
48744;DHT22;34538;48.836;9.174;2023-04-25T15:34:28;11.60;99.90
48744;DHT22;34538;48.836;9.174;2023-04-25T15:36:56;11.70;99.90
48744;DHT22;34538;48.836;9.174;2023-04-25T15:39:23;11.60;99.90
48744;DHT22;34538;48.836;9.174;2023-04-25T15:41:50;11.70;99.90
48744;DHT22;34538;48.836;9.174;2023-04-25T15:44:17;11.70;99.90
48744;DHT22;34538;48.836;9.174;2023-04-25T15:46:43;11.70;99.90
48744;DHT22;34538;48.836;9.174;2023-04-25T15:49:11;11.70;99.90
48744;DHT22;34538;48.836;9.174;2023-04-25T15:51:37;11.60;99.90
48744;DHT22;34538;48.836;9.174;2023-04-25T15:54:06;11.60;99.90
48744;DHT22;34538;48.836;9.174;2023-04-25T15:56:33;11.60;99.90
48744;DHT22;34538;48.836;9.174;2023-04-25T15:59:00;11.60;99.90
48744;DHT22;34538;48.836;9.174;2023-04-25T16:01:27;11.60;99.90
48744;DHT22;34538;48.836;9.174;2023-04-25T16:03:55;11.70;99.90